sensor_id;sensor_type;location;lat;lon;timestamp;pressure;altitude;pressure_sealevel;temperature
19102;BMP280;9683;49.028;12.064;2023-02-28T00:00:00;97926.53;;;2.35
19102;BMP280;9683;49.028;12.064;2023-02-28T00:02:33;97921.94;;;2.37
19102;BMP280;9683;49.028;12.064;2023-02-28T00:05:00;97921.13;;;2.37
19102;BMP280;9683;49.028;12.064;2023-02-28T00:07:29;97921.13;;;2.37
19102;BMP280;9683;49.028;12.064;2023-02-28T00:09:57;97924.25;;;2.40
19102;BMP280;9683;49.028;12.064;2023-02-28T00:12:24;97917.38;;;2.39
19102;BMP280;9683;49.028;12.064;2023-02-28T00:14:51;97913.09;;;2.38
19102;BMP280;9683;49.028;12.064;2023-02-28T00:17:18;97903.44;;;2.39
19102;BMP280;9683;49.028;12.064;2023-02-28T00:19:47;97910.63;;;2.37
19102;BMP280;9683;49.028;12.064;2023-02-28T00:22:14;97902.91;;;2.35
19102;BMP280;9683;49.028;12.064;2023-02-28T00:24:41;97904.84;;;2.33
19102;BMP280;9683;49.028;12.064;2023-02-28T00:27:09;97907.34;;;2.35
19102;BMP280;9683;49.028;12.064;2023-02-28T00:29:37;97902.75;;;2.37
19102;BMP280;9683;49.028;12.064;2023-02-28T00:32:05;97907.03;;;2.38
19102;BMP280;9683;49.028;12.064;2023-02-28T00:34:32;97905.69;;;2.34
19102;BMP280;9683;49.028;12.064;2023-02-28T00:37:03;97897.66;;;2.35
19102;BMP280;9683;49.028;12.064;2023-02-28T00:39:30;97896.16;;;2.33
19102;BMP280;9683;49.028;12.064;2023-02-28T00:41:56;97906.16;;;2.29
19102;BMP280;9683;49.028;12.064;2023-02-28T00:44:24;97902.22;;;2.33
19102;BMP280;9683;49.028;12.064;2023-02-28T00:46:51;97898.63;;;2.34
19102;BMP280;9683;49.028;12.064;2023-02-28T00:49:19;97890.91;;;2.33
19102;BMP280;9683;49.028;12.064;2023-02-28T00:51:46;97886.50;;;2.33
19102;BMP280;9683;49.028;12.064;2023-02-28T00:54:12;97888.28;;;2.33
19102;BMP280;9683;49.028;12.064;2023-02-28T00:56:39;97880.59;;;2.31
19102;BMP280;9683;49.028;12.064;2023-02-28T00:59:05;97894.00;;;2.28
19102;BMP280;9683;49.028;12.064;2023-02-28T01:01:33;97891.69;;;2.25
19102;BMP280;9683;49.028;12.064;2023-02-28T01:04:00;97889.75;;;2.27
19102;BMP280;9683;49.028;12.064;2023-02-28T01:06:27;97889.06;;;2.25
19102;BMP280;9683;49.028;12.064;2023-02-28T01:08:53;97884.50;;;2.27
19102;BMP280;9683;49.028;12.064;2023-02-28T01:11:20;97890.03;;;2.24
19102;BMP280;9683;49.028;12.064;2023-02-28T01:13:47;97885.09;;;2.21
19102;BMP280;9683;49.028;12.064;2023-02-28T01:16:13;97877.22;;;2.21
19102;BMP280;9683;49.028;12.064;2023-02-28T01:18:41;97880.53;;;2.23
19102;BMP280;9683;49.028;12.064;2023-02-28T01:21:10;97882.16;;;2.24
19102;BMP280;9683;49.028;12.064;2023-02-28T01:23:37;97879.53;;;2.24
19102;BMP280;9683;49.028;12.064;2023-02-28T01:26:05;97877.91;;;2.23
19102;BMP280;9683;49.028;12.064;2023-02-28T01:28:32;97874.59;;;2.21
19102;BMP280;9683;49.028;12.064;2023-02-28T01:30:58;97875.56;;;2.20
19102;BMP280;9683;49.028;12.064;2023-02-28T01:33:25;97884.53;;;2.09
19102;BMP280;9683;49.028;12.064;2023-02-28T01:35:58;97877.78;;;2.07
19102;BMP280;9683;49.028;12.064;2023-02-28T01:38:25;97882.19;;;2.06
19102;BMP280;9683;49.028;12.064;2023-02-28T01:40:52;97875.03;;;2.08
19102;BMP280;9683;49.028;12.064;2023-02-28T01:43:23;97883.56;;;2.10
19102;BMP280;9683;49.028;12.064;2023-02-28T01:45:50;97873.38;;;2.07
19102;BMP280;9683;49.028;12.064;2023-02-28T01:48:18;97875.97;;;2.07
19102;BMP280;9683;49.028;12.064;2023-02-28T01:50:47;97872.19;;;2.02
19102;BMP280;9683;49.028;12.064;2023-02-28T01:53:19;97861.03;;;2.00
19102;BMP280;9683;49.028;12.064;2023-02-28T01:55:50;97863.78;;;1.98
19102;BMP280;9683;49.028;12.064;2023-02-28T01:58:17;97859.38;;;1.99
19102;BMP280;9683;49.028;12.064;2023-02-28T02:00:44;97865.44;;;1.99
19102;BMP280;9683;49.028;12.064;2023-02-28T02:03:13;97872.19;;;2.02
19102;BMP280;9683;49.028;12.064;2023-02-28T02:05:41;97860.88;;;2.01
19102;BMP280;9683;49.028;12.064;2023-02-28T02:08:15;97864.97;;;2.04
19102;BMP280;9683;49.028;12.064;2023-02-28T02:10:46;97861.53;;;2.03
19102;BMP280;9683;49.028;12.064;2023-02-28T02:16:20;97861.34;;;1.97
19102;BMP280;9683;49.028;12.064;2023-02-28T02:18:52;97857.06;;;1.96
19102;BMP280;9683;49.028;12.064;2023-02-28T02:21:47;97857.19;;;1.94
19102;BMP280;9683;49.028;12.064;2023-02-28T02:24:50;97859.00;;;1.94
19102;BMP280;9683;49.028;12.064;2023-02-28T02:27:25;97868.00;;;1.91
19102;BMP280;9683;49.028;12.064;2023-02-28T02:35:56;97852.91;;;1.85
19102;BMP280;9683;49.028;12.064;2023-02-28T02:38:31;97860.59;;;1.87
19102;BMP280;9683;49.028;12.064;2023-02-28T02:41:05;97854.69;;;1.84
19102;BMP280;9683;49.028;12.064;2023-02-28T02:43:37;97859.13;;;1.84
19102;BMP280;9683;49.028;12.064;2023-02-28T02:46:10;97861.75;;;1.84
19102;BMP280;9683;49.028;12.064;2023-02-28T02:48:40;97859.25;;;1.82
19102;BMP280;9683;49.028;12.064;2023-02-28T02:51:12;97863.66;;;1.82
19102;BMP280;9683;49.028;12.064;2023-02-28T02:53:42;97866.25;;;1.74
19102;BMP280;9683;49.028;12.064;2023-02-28T02:56:11;97860.16;;;1.73
19102;BMP280;9683;49.028;12.064;2023-02-28T02:58:40;97872.31;;;1.74
19102;BMP280;9683;49.028;12.064;2023-02-28T03:01:12;97871.34;;;1.75
19102;BMP280;9683;49.028;12.064;2023-02-28T03:03:39;97866.09;;;1.75
19102;BMP280;9683;49.028;12.064;2023-02-28T03:06:06;97860.03;;;1.75
19102;BMP280;9683;49.028;12.064;2023-02-28T03:08:36;97865.13;;;1.76
19102;BMP280;9683;49.028;12.064;2023-02-28T03:11:05;97852.81;;;1.77
19102;BMP280;9683;49.028;12.064;2023-02-28T03:16:56;97855.59;;;1.75
19102;BMP280;9683;49.028;12.064;2023-02-28T03:19:47;97868.19;;;1.72
19102;BMP280;9683;49.028;12.064;2023-02-28T03:22:29;97876.06;;;1.72
19102;BMP280;9683;49.028;12.064;2023-02-28T03:25:05;97858.53;;;1.72
19102;BMP280;9683;49.028;12.064;2023-02-28T03:27:38;97870.66;;;1.73
19102;BMP280;9683;49.028;12.064;2023-02-28T03:30:10;97872.44;;;1.73
19102;BMP280;9683;49.028;12.064;2023-02-28T03:32:41;97869.81;;;1.73
19102;BMP280;9683;49.028;12.064;2023-02-28T03:35:11;97867.38;;;1.71
19102;BMP280;9683;49.028;12.064;2023-02-28T03:37:41;97866.69;;;1.69
19102;BMP280;9683;49.028;12.064;2023-02-28T03:40:12;97869.47;;;1.68
19102;BMP280;9683;49.028;12.064;2023-02-28T03:42:42;97879.28;;;1.66
19102;BMP280;9683;49.028;12.064;2023-02-28T03:45:13;97868.94;;;1.64
19102;BMP280;9683;49.028;12.064;2023-02-28T03:47:42;97872.56;;;1.63
19102;BMP280;9683;49.028;12.064;2023-02-28T03:50:13;97868.13;;;1.64
19102;BMP280;9683;49.028;12.064;2023-02-28T03:52:47;97869.94;;;1.63
19102;BMP280;9683;49.028;12.064;2023-02-28T03:55:18;97867.31;;;1.63
19102;BMP280;9683;49.028;12.064;2023-02-28T03:57:53;97869.94;;;1.63
19102;BMP280;9683;49.028;12.064;2023-02-28T04:00:27;97863.88;;;1.63
19102;BMP280;9683;49.028;12.064;2023-02-28T04:02:55;97870.44;;;1.67
19102;BMP280;9683;49.028;12.064;2023-02-28T04:05:22;97873.91;;;1.67
19102;BMP280;9683;49.028;12.064;2023-02-28T04:07:49;97862.72;;;1.65
19102;BMP280;9683;49.028;12.064;2023-02-28T04:10:17;97865.34;;;1.65
19102;BMP280;9683;49.028;12.064;2023-02-28T04:12:44;97868.13;;;1.64
19102;BMP280;9683;49.028;12.064;2023-02-28T04:15:10;97871.56;;;1.64
19102;BMP280;9683;49.028;12.064;2023-02-28T04:17:37;97859.13;;;1.66
19102;BMP280;9683;49.028;12.064;2023-02-28T04:20:04;97866.31;;;1.64
19102;BMP280;9683;49.028;12.064;2023-02-28T04:22:35;97874.34;;;1.63
19102;BMP280;9683;49.028;12.064;2023-02-28T04:25:01;97871.56;;;1.64
19102;BMP280;9683;49.028;12.064;2023-02-28T04:27:29;97868.13;;;1.64
19102;BMP280;9683;49.028;12.064;2023-02-28T04:29:56;97870.75;;;1.64
19102;BMP280;9683;49.028;12.064;2023-02-28T04:32:23;97872.38;;;1.65
19102;BMP280;9683;49.028;12.064;2023-02-28T04:34:49;97868.78;;;1.66
19102;BMP280;9683;49.028;12.064;2023-02-28T04:37:16;97871.28;;;1.67
19102;BMP280;9683;49.028;12.064;2023-02-28T04:39:43;97869.47;;;1.68
19102;BMP280;9683;49.028;12.064;2023-02-28T04:42:10;97863.09;;;1.70
19102;BMP280;9683;49.028;12.064;2023-02-28T04:44:38;97863.94;;;1.71
19102;BMP280;9683;49.028;12.064;2023-02-28T04:47:05;97860.47;;;1.70
19102;BMP280;9683;49.028;12.064;2023-02-28T04:49:31;97859.50;;;1.71
19102;BMP280;9683;49.028;12.064;2023-02-28T04:51:58;97866.41;;;1.72
19102;BMP280;9683;49.028;12.064;2023-02-28T04:54:24;97875.88;;;1.73
19102;BMP280;9683;49.028;12.064;2023-02-28T04:56:51;97870.81;;;1.72
19102;BMP280;9683;49.028;12.064;2023-02-28T04:59:18;97866.41;;;1.72
19102;BMP280;9683;49.028;12.064;2023-02-28T05:01:47;97872.31;;;1.74
19102;BMP280;9683;49.028;12.064;2023-02-28T05:04:15;97879.34;;;1.74
19102;BMP280;9683;49.028;12.064;2023-02-28T05:06:41;97874.94;;;1.74
19102;BMP280;9683;49.028;12.064;2023-02-28T05:09:08;97872.31;;;1.74
19102;BMP280;9683;49.028;12.064;2023-02-28T05:11:37;97867.88;;;1.75
19102;BMP280;9683;49.028;12.064;2023-02-28T05:14:05;97890.53;;;1.76
19102;BMP280;9683;49.028;12.064;2023-02-28T05:16:33;97875.88;;;1.73
19102;BMP280;9683;49.028;12.064;2023-02-28T05:19:01;97872.44;;;1.73
19102;BMP280;9683;49.028;12.064;2023-02-28T05:21:29;97870.00;;;1.71
19102;BMP280;9683;49.028;12.064;2023-02-28T05:23:58;97874.09;;;1.74
19102;BMP280;9683;49.028;12.064;2023-02-28T05:26:25;97873.13;;;1.75
19102;BMP280;9683;49.028;12.064;2023-02-28T05:28:52;97877.56;;;1.74
19102;BMP280;9683;49.028;12.064;2023-02-28T05:31:20;97875.06;;;1.73
19102;BMP280;9683;49.028;12.064;2023-02-28T05:33:47;97888.19;;;1.73
19102;BMP280;9683;49.028;12.064;2023-02-28T05:36:15;97884.75;;;1.72
19102;BMP280;9683;49.028;12.064;2023-02-28T05:38:41;97890.28;;;1.69
19102;BMP280;9683;49.028;12.064;2023-02-28T05:41:09;97883.56;;;1.67
19102;BMP280;9683;49.028;12.064;2023-02-28T05:43:37;97891.41;;;1.67
19102;BMP280;9683;49.028;12.064;2023-02-28T05:46:04;97883.69;;;1.65
19102;BMP280;9683;49.028;12.064;2023-02-28T05:48:32;97882.88;;;1.65
19102;BMP280;9683;49.028;12.064;2023-02-28T05:50:58;97888.09;;;1.65
19102;BMP280;9683;49.028;12.064;2023-02-28T05:53:26;97896.66;;;1.67
19102;BMP280;9683;49.028;12.064;2023-02-28T05:55:53;97887.97;;;1.66
19102;BMP280;9683;49.028;12.064;2023-02-28T05:58:20;97882.59;;;1.68
19102;BMP280;9683;49.028;12.064;2023-02-28T06:00:46;97886.69;;;1.70
19102;BMP280;9683;49.028;12.064;2023-02-28T06:03:13;97891.94;;;1.70
19102;BMP280;9683;49.028;12.064;2023-02-28T06:05:40;97892.63;;;1.72
19102;BMP280;9683;49.028;12.064;2023-02-28T06:08:07;97897.88;;;1.72
19102;BMP280;9683;49.028;12.064;2023-02-28T06:10:35;97895.75;;;1.76
19102;BMP280;9683;49.028;12.064;2023-02-28T06:13:02;97909.00;;;1.74
19102;BMP280;9683;49.028;12.064;2023-02-28T06:15:29;97898.66;;;1.73
19102;BMP280;9683;49.028;12.064;2023-02-28T06:17:56;97890.78;;;1.73
19102;BMP280;9683;49.028;12.064;2023-02-28T06:20:24;97887.91;;;1.76
19102;BMP280;9683;49.028;12.064;2023-02-28T06:22:51;97900.00;;;1.77
19102;BMP280;9683;49.028;12.064;2023-02-28T06:25:19;97899.88;;;1.78
19102;BMP280;9683;49.028;12.064;2023-02-28T06:27:47;97906.31;;;1.84
19102;BMP280;9683;49.028;12.064;2023-02-28T06:30:14;97903.69;;;1.84
19102;BMP280;9683;49.028;12.064;2023-02-28T06:32:41;97905.34;;;1.85
19102;BMP280;9683;49.028;12.064;2023-02-28T06:35:08;97913.88;;;1.87
19102;BMP280;9683;49.028;12.064;2023-02-28T06:37:35;97913.72;;;1.89
19102;BMP280;9683;49.028;12.064;2023-02-28T06:40:02;97910.09;;;1.90
19102;BMP280;9683;49.028;12.064;2023-02-28T06:42:31;97915.91;;;1.93
19102;BMP280;9683;49.028;12.064;2023-02-28T06:44:59;97924.41;;;1.95
19102;BMP280;9683;49.028;12.064;2023-02-28T06:47:25;97918.22;;;1.96
19102;BMP280;9683;49.028;12.064;2023-02-28T06:49:52;97921.50;;;1.98
19102;BMP280;9683;49.028;12.064;2023-02-28T06:52:18;97926.44;;;2.01
19102;BMP280;9683;49.028;12.064;2023-02-28T06:54:45;97929.91;;;2.02
19102;BMP280;9683;49.028;12.064;2023-02-28T06:57:12;97914.81;;;2.04
19102;BMP280;9683;49.028;12.064;2023-02-28T06:59:38;97917.13;;;2.07
19102;BMP280;9683;49.028;12.064;2023-02-28T07:02:07;97919.16;;;2.13
19102;BMP280;9683;49.028;12.064;2023-02-28T07:04:34;97920.63;;;2.15
19102;BMP280;9683;49.028;12.064;2023-02-28T07:07:01;97928.22;;;2.18
19102;BMP280;9683;49.028;12.064;2023-02-28T07:09:27;97919.06;;;2.22
19102;BMP280;9683;49.028;12.064;2023-02-28T07:11:55;97930.91;;;2.26
19102;BMP280;9683;49.028;12.064;2023-02-28T07:14:21;97933.22;;;2.29
19102;BMP280;9683;49.028;12.064;2023-02-28T07:16:48;97931.25;;;2.31
19102;BMP280;9683;49.028;12.064;2023-02-28T07:19:16;97933.28;;;2.38
19102;BMP280;9683;49.028;12.064;2023-02-28T07:21:43;97926.88;;;2.40
19102;BMP280;9683;49.028;12.064;2023-02-28T07:24:10;97934.81;;;2.48
19102;BMP280;9683;49.028;12.064;2023-02-28T07:26:36;97933.22;;;2.55
19102;BMP280;9683;49.028;12.064;2023-02-28T07:29:04;97929.94;;;2.61
19102;BMP280;9683;49.028;12.064;2023-02-28T07:31:30;97933.63;;;2.68
19102;BMP280;9683;49.028;12.064;2023-02-28T07:33:57;97926.13;;;2.73
19102;BMP280;9683;49.028;12.064;2023-02-28T07:36:25;97931.69;;;2.78
19102;BMP280;9683;49.028;12.064;2023-02-28T07:38:51;97945.66;;;2.79
19102;BMP280;9683;49.028;12.064;2023-02-28T07:41:20;97941.09;;;2.81
19102;BMP280;9683;49.028;12.064;2023-02-28T07:43:46;97946.16;;;2.83
19102;BMP280;9683;49.028;12.064;2023-02-28T07:46:14;97946.50;;;2.88
19102;BMP280;9683;49.028;12.064;2023-02-28T07:48:41;97949.81;;;2.90
19102;BMP280;9683;49.028;12.064;2023-02-28T07:51:08;97940.78;;;2.92
19102;BMP280;9683;49.028;12.064;2023-02-28T07:53:37;97950.00;;;2.96
19102;BMP280;9683;49.028;12.064;2023-02-28T07:56:04;97954.78;;;3.01
19102;BMP280;9683;49.028;12.064;2023-02-28T07:58:30;97945.63;;;3.05
19102;BMP280;9683;49.028;12.064;2023-02-28T08:01:05;97949.56;;;3.09
19102;BMP280;9683;49.028;12.064;2023-02-28T08:03:31;97955.31;;;3.12
19102;BMP280;9683;49.028;12.064;2023-02-28T08:05:58;97942.03;;;3.14
19102;BMP280;9683;49.028;12.064;2023-02-28T08:08:25;97949.59;;;3.17
19102;BMP280;9683;49.028;12.064;2023-02-28T08:10:58;97948.16;;;3.22
19102;BMP280;9683;49.028;12.064;2023-02-28T08:13:24;97961.16;;;3.24
19102;BMP280;9683;49.028;12.064;2023-02-28T08:15:52;97947.00;;;3.25
19102;BMP280;9683;49.028;12.064;2023-02-28T08:18:19;97964.09;;;3.29
19102;BMP280;9683;49.028;12.064;2023-02-28T08:20:45;97953.28;;;3.32
19102;BMP280;9683;49.028;12.064;2023-02-28T08:23:12;97964.31;;;3.36
19102;BMP280;9683;49.028;12.064;2023-02-28T08:25:39;97961.50;;;3.37
19102;BMP280;9683;49.028;12.064;2023-02-28T08:28:07;97963.66;;;3.42
19102;BMP280;9683;49.028;12.064;2023-02-28T08:30:33;97960.72;;;3.45
19102;BMP280;9683;49.028;12.064;2023-02-28T08:33:00;97972.56;;;3.49
19102;BMP280;9683;49.028;12.064;2023-02-28T08:35:27;97959.91;;;3.52
19102;BMP280;9683;49.028;12.064;2023-02-28T08:37:53;97970.25;;;3.54
19102;BMP280;9683;49.028;12.064;2023-02-28T08:40:20;97974.38;;;3.56
19102;BMP280;9683;49.028;12.064;2023-02-28T08:42:46;97967.81;;;3.60
19102;BMP280;9683;49.028;12.064;2023-02-28T08:45:14;97973.56;;;3.64
19102;BMP280;9683;49.028;12.064;2023-02-28T08:47:41;97978.50;;;3.67
19102;BMP280;9683;49.028;12.064;2023-02-28T08:50:08;97977.06;;;3.73
19102;BMP280;9683;49.028;12.064;2023-02-28T08:52:35;97982.97;;;3.75
19102;BMP280;9683;49.028;12.064;2023-02-28T08:55:04;97972.13;;;3.78
19102;BMP280;9683;49.028;12.064;2023-02-28T08:57:30;97986.63;;;3.82
19102;BMP280;9683;49.028;12.064;2023-02-28T08:59:58;97980.88;;;3.86
19102;BMP280;9683;49.028;12.064;2023-02-28T09:02:25;97976.94;;;3.90
19102;BMP280;9683;49.028;12.064;2023-02-28T09:04:52;97984.00;;;3.90
19102;BMP280;9683;49.028;12.064;2023-02-28T09:07:19;97979.22;;;3.93
19102;BMP280;9683;49.028;12.064;2023-02-28T09:09:46;97981.69;;;3.95
19102;BMP280;9683;49.028;12.064;2023-02-28T09:12:20;97974.44;;;3.97
19102;BMP280;9683;49.028;12.064;2023-02-28T09:14:46;97980.22;;;4.00
19102;BMP280;9683;49.028;12.064;2023-02-28T09:17:13;97978.25;;;4.02
19102;BMP280;9683;49.028;12.064;2023-02-28T09:19:41;97975.28;;;4.05
19102;BMP280;9683;49.028;12.064;2023-02-28T09:22:08;97964.75;;;4.05
19102;BMP280;9683;49.028;12.064;2023-02-28T09:24:36;97971.66;;;4.06
19102;BMP280;9683;49.028;12.064;2023-02-28T09:27:03;97967.56;;;4.12
19102;BMP280;9683;49.028;12.064;2023-02-28T09:29:30;97973.31;;;4.15
19102;BMP280;9683;49.028;12.064;2023-02-28T09:31:57;97981.72;;;4.19
19102;BMP280;9683;49.028;12.064;2023-02-28T09:34:24;97983.19;;;4.22
19102;BMP280;9683;49.028;12.064;2023-02-28T09:36:51;97985.31;;;4.26
19102;BMP280;9683;49.028;12.064;2023-02-28T09:39:20;97980.72;;;4.28
19102;BMP280;9683;49.028;12.064;2023-02-28T09:41:48;97981.03;;;4.25
19102;BMP280;9683;49.028;12.064;2023-02-28T09:44:22;97983.19;;;4.30
19102;BMP280;9683;49.028;12.064;2023-02-28T09:46:54;97992.41;;;4.34
19102;BMP280;9683;49.028;12.064;2023-02-28T09:49:24;97983.19;;;4.38
19102;BMP280;9683;49.028;12.064;2023-02-28T09:51:57;97978.25;;;4.43
19102;BMP280;9683;49.028;12.064;2023-02-28T09:54:28;97978.09;;;4.44
19102;BMP280;9683;49.028;12.064;2023-02-28T09:56:59;97988.28;;;4.47
19102;BMP280;9683;49.028;12.064;2023-02-28T09:59:40;97986.97;;;4.51
19102;BMP280;9683;49.028;12.064;2023-02-28T10:02:36;97981.19;;;4.56
19102;BMP280;9683;49.028;12.064;2023-02-28T10:05:08;97992.72;;;4.55
19102;BMP280;9683;49.028;12.064;2023-02-28T10:07:50;97992.56;;;4.56
19102;BMP280;9683;49.028;12.064;2023-02-28T10:10:24;97989.59;;;4.59
19102;BMP280;9683;49.028;12.064;2023-02-28T10:12:55;97991.91;;;4.63
19102;BMP280;9683;49.028;12.064;2023-02-28T10:15:25;97994.34;;;4.64
19102;BMP280;9683;49.028;12.064;2023-02-28T10:17:57;97997.47;;;4.68
19102;BMP280;9683;49.028;12.064;2023-02-28T10:20:26;97986.63;;;4.71
19102;BMP280;9683;49.028;12.064;2023-02-28T10:23:01;97997.81;;;4.73
19102;BMP280;9683;49.028;12.064;2023-02-28T10:25:33;97996.69;;;4.75
19102;BMP280;9683;49.028;12.064;2023-02-28T10:28:08;97998.81;;;4.80
19102;BMP280;9683;49.028;12.064;2023-02-28T10:30:37;97990.22;;;4.86
19102;BMP280;9683;49.028;12.064;2023-02-28T10:33:04;97999.44;;;4.90
19102;BMP280;9683;49.028;12.064;2023-02-28T10:35:30;97994.63;;;4.93
19102;BMP280;9683;49.028;12.064;2023-02-28T10:38:02;98001.22;;;4.97
19102;BMP280;9683;49.028;12.064;2023-02-28T10:40:36;97992.16;;;5.00
19102;BMP280;9683;49.028;12.064;2023-02-28T10:43:04;97991.81;;;5.03
19102;BMP280;9683;49.028;12.064;2023-02-28T10:45:32;97982.75;;;5.05
19102;BMP280;9683;49.028;12.064;2023-02-28T10:48:02;97998.06;;;5.10
19102;BMP280;9683;49.028;12.064;2023-02-28T10:50:33;97995.25;;;5.12
19102;BMP280;9683;49.028;12.064;2023-02-28T10:53:17;97999.03;;;5.17
19102;BMP280;9683;49.028;12.064;2023-02-28T10:55:57;97990.94;;;5.19
19102;BMP280;9683;49.028;12.064;2023-02-28T10:58:25;97998.69;;;5.20
19102;BMP280;9683;49.028;12.064;2023-02-28T11:00:52;97996.69;;;5.22
19102;BMP280;9683;49.028;12.064;2023-02-28T11:03:28;97986.47;;;5.27
19102;BMP280;9683;49.028;12.064;2023-02-28T11:05:55;97973.13;;;5.29
19102;BMP280;9683;49.028;12.064;2023-02-28T11:08:23;97981.03;;;5.29
19102;BMP280;9683;49.028;12.064;2023-02-28T11:10:54;97987.44;;;5.34
19102;BMP280;9683;49.028;12.064;2023-02-28T11:13:26;97967.13;;;5.35
19102;BMP280;9683;49.028;12.064;2023-02-28T11:15:55;97986.28;;;5.37
19102;BMP280;9683;49.028;12.064;2023-02-28T11:18:27;97994.66;;;5.40
19102;BMP280;9683;49.028;12.064;2023-02-28T11:20:58;97980.13;;;5.44
19102;BMP280;9683;49.028;12.064;2023-02-28T11:23:28;97992.44;;;5.52
19102;BMP280;9683;49.028;12.064;2023-02-28T11:25:58;97984.03;;;5.57
19102;BMP280;9683;49.028;12.064;2023-02-28T11:28:28;97986.00;;;5.63
19102;BMP280;9683;49.028;12.064;2023-02-28T11:31:01;97977.88;;;5.64
19102;BMP280;9683;49.028;12.064;2023-02-28T11:33:30;97986.47;;;5.66
19102;BMP280;9683;49.028;12.064;2023-02-28T11:36:00;97983.31;;;5.71
19102;BMP280;9683;49.028;12.064;2023-02-28T11:38:28;97981.78;;;5.76
19102;BMP280;9683;49.028;12.064;2023-02-28T11:41:05;97977.44;;;5.83
19102;BMP280;9683;49.028;12.064;2023-02-28T11:43:46;97987.19;;;5.83
19102;BMP280;9683;49.028;12.064;2023-02-28T11:46:24;97970.16;;;5.85
19102;BMP280;9683;49.028;12.064;2023-02-28T11:49:03;97980.69;;;5.93
19102;BMP280;9683;49.028;12.064;2023-02-28T11:51:34;97971.94;;;6.01
19102;BMP280;9683;49.028;12.064;2023-02-28T11:54:26;97972.84;;;6.08
19102;BMP280;9683;49.028;12.064;2023-02-28T11:56:57;97980.41;;;6.11
19102;BMP280;9683;49.028;12.064;2023-02-28T11:59:41;97981.09;;;6.13
19102;BMP280;9683;49.028;12.064;2023-02-28T12:02:22;97974.09;;;6.20
19102;BMP280;9683;49.028;12.064;2023-02-28T12:07:47;97977.06;;;6.40
19102;BMP280;9683;49.028;12.064;2023-02-28T12:10:21;97965.41;;;6.49
19102;BMP280;9683;49.028;12.064;2023-02-28T12:12:58;97973.81;;;6.53
19102;BMP280;9683;49.028;12.064;2023-02-28T12:15:43;97974.94;;;6.58
19102;BMP280;9683;49.028;12.064;2023-02-28T12:18:25;97967.44;;;6.62
19102;BMP280;9683;49.028;12.064;2023-02-28T12:20:57;97968.41;;;6.69
19102;BMP280;9683;49.028;12.064;2023-02-28T12:23:55;97964.66;;;6.78
19102;BMP280;9683;49.028;12.064;2023-02-28T12:26:32;97967.03;;;6.87
19102;BMP280;9683;49.028;12.064;2023-02-28T12:29:05;97957.19;;;6.96
19102;BMP280;9683;49.028;12.064;2023-02-28T12:31:39;97960.41;;;7.06
19102;BMP280;9683;49.028;12.064;2023-02-28T12:34:10;97962.94;;;7.14
19102;BMP280;9683;49.028;12.064;2023-02-28T12:36:39;97957.94;;;7.19
19102;BMP280;9683;49.028;12.064;2023-02-28T12:39:11;97955.91;;;7.21
19102;BMP280;9683;49.028;12.064;2023-02-28T12:41:44;97950.28;;;7.10
19102;BMP280;9683;49.028;12.064;2023-02-28T12:44:16;97945.25;;;7.15
19102;BMP280;9683;49.028;12.064;2023-02-28T12:46:46;97947.44;;;7.26
19102;BMP280;9683;49.028;12.064;2023-02-28T12:49:17;97946.94;;;7.37
19102;BMP280;9683;49.028;12.064;2023-02-28T12:51:44;97942.03;;;7.49
19102;BMP280;9683;49.028;12.064;2023-02-28T12:54:18;97941.34;;;7.61
19102;BMP280;9683;49.028;12.064;2023-02-28T12:56:54;97943.88;;;7.69
19102;BMP280;9683;49.028;12.064;2023-02-28T12:59:25;97934.00;;;7.78
19102;BMP280;9683;49.028;12.064;2023-02-28T13:02:01;97940.00;;;7.87
19102;BMP280;9683;49.028;12.064;2023-02-28T13:04:55;97933.38;;;7.97
19102;BMP280;9683;49.028;12.064;2023-02-28T13:07:53;97930.53;;;7.99
19102;BMP280;9683;49.028;12.064;2023-02-28T13:10:24;97935.06;;;8.05
19102;BMP280;9683;49.028;12.064;2023-02-28T13:12:54;97938.06;;;8.16
19102;BMP280;9683;49.028;12.064;2023-02-28T13:15:24;97936.88;;;8.25
19102;BMP280;9683;49.028;12.064;2023-02-28T13:17:55;97939.06;;;8.37
19102;BMP280;9683;49.028;12.064;2023-02-28T13:20:24;97941.38;;;8.46
19102;BMP280;9683;49.028;12.064;2023-02-28T13:22:52;97929.00;;;8.53
19102;BMP280;9683;49.028;12.064;2023-02-28T13:25:50;97942.94;;;8.62
19102;BMP280;9683;49.028;12.064;2023-02-28T13:28:58;97935.63;;;8.43
19102;BMP280;9683;49.028;12.064;2023-02-28T13:31:25;97937.94;;;8.46
19102;BMP280;9683;49.028;12.064;2023-02-28T13:34:11;97930.28;;;8.36
19102;BMP280;9683;49.028;12.064;2023-02-28T13:36:38;97930.34;;;8.43
19102;BMP280;9683;49.028;12.064;2023-02-28T13:42:34;97916.06;;;8.71
19102;BMP280;9683;49.028;12.064;2023-02-28T13:45:24;97941.44;;;8.81
19102;BMP280;9683;49.028;12.064;2023-02-28T13:47:53;97942.25;;;8.81
19102;BMP280;9683;49.028;12.064;2023-02-28T13:50:23;97934.13;;;8.89
19102;BMP280;9683;49.028;12.064;2023-02-28T13:53:02;97938.47;;;8.97
19102;BMP280;9683;49.028;12.064;2023-02-28T13:55:36;97932.00;;;9.06
19102;BMP280;9683;49.028;12.064;2023-02-28T13:58:25;97932.66;;;9.14
19102;BMP280;9683;49.028;12.064;2023-02-28T14:01:07;97924.91;;;9.19
19102;BMP280;9683;49.028;12.064;2023-02-28T14:03:48;97933.72;;;9.27
19102;BMP280;9683;49.028;12.064;2023-02-28T14:06:24;97932.47;;;9.23
19102;BMP280;9683;49.028;12.064;2023-02-28T14:08:55;97935.38;;;9.28
19102;BMP280;9683;49.028;12.064;2023-02-28T14:11:28;97906.00;;;9.36
19102;BMP280;9683;49.028;12.064;2023-02-28T14:13:56;97933.38;;;9.36
19102;BMP280;9683;49.028;12.064;2023-02-28T14:16:26;97930.31;;;9.39
19102;BMP280;9683;49.028;12.064;2023-02-28T14:18:58;97929.91;;;9.36
19102;BMP280;9683;49.028;12.064;2023-02-28T14:21:26;97937.25;;;9.34
19102;BMP280;9683;49.028;12.064;2023-02-28T14:24:24;97933.19;;;9.38
19102;BMP280;9683;49.028;12.064;2023-02-28T14:27:00;97934.03;;;9.45
19102;BMP280;9683;49.028;12.064;2023-02-28T14:29:42;97925.66;;;9.48
19102;BMP280;9683;49.028;12.064;2023-02-28T14:32:15;97927.31;;;9.55
19102;BMP280;9683;49.028;12.064;2023-02-28T14:34:51;97924.69;;;9.62
19102;BMP280;9683;49.028;12.064;2023-02-28T14:37:20;97933.66;;;9.61
19102;BMP280;9683;49.028;12.064;2023-02-28T14:39:50;97936.56;;;9.66
19102;BMP280;9683;49.028;12.064;2023-02-28T14:42:31;97930.22;;;9.74
19102;BMP280;9683;49.028;12.064;2023-02-28T14:44:58;97928.81;;;9.78
19102;BMP280;9683;49.028;12.064;2023-02-28T14:47:28;97937.25;;;9.88
19102;BMP280;9683;49.028;12.064;2023-02-28T14:49:57;97928.44;;;9.94
19102;BMP280;9683;49.028;12.064;2023-02-28T14:52:26;97931.72;;;9.96
19102;BMP280;9683;49.028;12.064;2023-02-28T14:54:55;97933.38;;;9.97
19102;BMP280;9683;49.028;12.064;2023-02-28T14:57:24;97940.53;;;10.03